Time;durP1;ratioP1;P1;durP2;ratioP2;P2;SDS_P1;SDS_P2;PMS_P1;PMS_P2;Temp;Humidity;BMP_temperature;BMP_pressure;BME280_temperature;BME280_humidity;BME280_pressure;Samples;Min_cycle;Max_cycle;Signal;HPM_P1;HPM_P2
2023/12/22 00:02:23;;;;;;;;;;;;;;;;;;2181830;59;1928;-18
2023/12/22 00:04:53;;;;;;;;;;;;;;;;;;2183970;59;2528;-18
2023/12/22 00:07:24;;;;;;;;;;;;;;;;;;2183498;59;2078;-19
2023/12/22 00:09:54;;;;;;;;;;;;;;;;;;2183161;59;2187;-18
2023/12/22 00:12:24;;;;;;;;;;;;;;;;;;2182430;59;2083;-19
2023/12/22 00:14:55;;;;;;;;;;;;;;;;;;2182462;59;1960;-18
2023/12/22 00:17:25;;;;;;;;;;;;;;;;;;2183648;59;2361;-19
2023/12/22 00:19:58;;;;;;;;;;;;;;;;;;2182938;67;2307;-19
2023/12/22 00:22:29;;;;;;;;;;;;;;;;;;2185991;67;2002;-18
2023/12/22 00:25:00;;;;;;;;;;;;;;;;;;2182906;59;2282;-19
2023/12/22 00:27:30;;;;;;;;;;;;;;;;;;2182671;59;2441;-19
2023/12/22 00:30:00;;;;;;;;;;;;;;;;;;2184952;59;2382;-19
2023/12/22 00:32:30;;;;;;;;;;;;;;;;;;2182092;59;2373;-18
2023/12/22 00:35:00;;;;;;;;;;;;;;;;;;2183097;59;2334;-19
2023/12/22 00:37:31;;;;;;;;;;;;;;;;;;2182010;59;2583;-19
2023/12/22 00:40:04;;;;;;;;;;;;;;;;;;2183218;59;2881;-20
2023/12/22 00:42:34;;;;;;;;;;;;;;;;;;2185296;59;2268;-19
2023/12/22 00:45:05;;;;;;;;;;;;;;;;;;2182093;59;2064;-18
2023/12/22 00:47:35;;;;;;;;;;;;;;;;;;2182518;67;2029;-20
2023/12/22 00:50:06;;;;;;;;;;;;;;;;;;2185642;59;2145;-20
2023/12/22 00:52:36;;;;;;;;;;;;;;;;;;2182348;59;2546;-19
2023/12/22 00:55:07;;;;;;;;;;;;;;;;;;2180134;67;3276;-19
2023/12/22 00:57:37;;;;;;;;;;;;;;;;;;2181418;59;3105;-20
2023/12/22 01:00:10;;;;;;;;;;;;;;;;;;2183992;59;3141;-19
2023/12/22 01:02:40;;;;;;;;;;;;;;;;;;2182929;59;2220;-19
2023/12/22 01:05:11;;;;;;;;;;;;;;;;;;2182449;59;2017;-20
2023/12/22 01:07:41;;;;;;;;;;;;;;;;;;2184381;67;2082;-19
2023/12/22 01:10:11;;;;;;;;;;;;;;;;;;2183772;59;2343;-19
2023/12/22 01:12:42;;;;;;;;;;;;;;;;;;2183887;59;2614;-19
2023/12/22 01:15:12;;;;;;;;;;;;;;;;;;2186303;59;1838;-19
2023/12/22 01:17:43;;;;;;;;;;;;;;;;;;2184730;67;2283;-19
2023/12/22 01:20:13;;;;;;;;;;;;;;;;;;2183998;60;1988;-19
2023/12/22 01:22:43;;;;;;;;;;;;;;;;;;2183434;67;2043;-19
2023/12/22 01:25:14;;;;;;;;;;;;;;;;;;2184474;59;2080;-20
2023/12/22 01:27:44;;;;;;;;;;;;;;;;;;2183754;67;1816;-19
2023/12/22 01:30:14;;;;;;;;;;;;;;;;;;2185377;59;2433;-19
2023/12/22 01:32:44;;;;;;;;;;;;;;;;;;2183184;59;3231;-19
2023/12/22 01:35:15;;;;;;;;;;;;;;;;;;2182436;59;2232;-19
2023/12/22 01:37:47;;;;;;;;;;;;;;;;;;2182283;59;2644;-19
2023/12/22 01:40:17;;;;;;;;;;;;;;;;;;2180777;59;2332;-19
2023/12/22 01:42:47;;;;;;;;;;;;;;;;;;2183398;59;2316;-19
2023/12/22 01:45:17;;;;;;;;;;;;;;;;;;2182556;67;2474;-19
2023/12/22 01:47:48;;;;;;;;;;;;;;;;;;2183304;59;2075;-19
2023/12/22 01:50:18;;;;;;;;;;;;;;;;;;2181039;59;2049;-19
2023/12/22 01:52:48;;;;;;;;;;;;;;;;;;2183324;67;2055;-18
2023/12/22 01:55:19;;;;;;;;;;;;;;;;;;2182134;67;2619;-19
2023/12/22 01:57:49;;;;;;;;;;;;;;;;;;2181709;59;2534;-18
2023/12/22 02:00:20;;;;;;;;;;;;;;;;;;2182783;67;2388;-18
2023/12/22 02:02:50;;;;;;;;;;;;;;;;;;2186380;59;2425;-18
2023/12/22 02:05:21;;;;;;;;;;;;;;;;;;2182549;59;2221;-19
2023/12/22 02:07:51;;;;;;;;;;;;;;;;;;2183872;59;2397;-19
2023/12/22 02:10:22;;;;;;;;;;;;;;;;;;2183418;59;2221;-19
2023/12/22 02:12:55;;;;;;;;;;;;;;;;;;2183155;59;2433;-18
2023/12/22 02:15:25;;;;;;;;;;;;;;;;;;2181290;59;2212;-18
2023/12/22 02:18:03;;;;;;;;;;;;;;;;;;2181724;59;2143;-19
2023/12/22 02:20:33;;;;;;;;;;;;;;;;;;2182286;59;2424;-18
2023/12/22 02:23:03;;;;;;;;;;;;;;;;;;2185846;59;2455;-19
2023/12/22 02:25:34;;;;;;;;;;;;;;;;;;2182576;59;2786;-19
2023/12/22 02:28:09;;;;;;;;;;;;;;;;;;2183667;59;2807;-18
2023/12/22 02:30:39;;;;;;;;;;;;;;;;;;2182730;59;2084;-19
2023/12/22 02:33:10;;;;;;;;;;;;;;;;;;2183859;59;2181;-19
2023/12/22 02:35:41;;;;;;;;;;;;;;;;;;2183024;59;2376;-19
2023/12/22 02:38:12;;;;;;;;;;;;;;;;;;2184195;59;2423;-18
2023/12/22 02:40:43;;;;;;;;;;;;;;;;;;2181942;59;2292;-19
2023/12/22 02:43:13;;;;;;;;;;;;;;;;;;2185131;59;1985;-19
2023/12/22 02:45:43;;;;;;;;;;;;;;;;;;2183608;59;1861;-19
2023/12/22 02:48:14;;;;;;;;;;;;;;;;;;2182534;59;2443;-18
2023/12/22 02:50:44;;;;;;;;;;;;;;;;;;2183146;67;1834;-18
2023/12/22 02:53:15;;;;;;;;;;;;;;;;;;2182769;59;2732;-19
2023/12/22 02:55:45;;;;;;;;;;;;;;;;;;2183403;59;2658;-18
2023/12/22 02:58:15;;;;;;;;;;;;;;;;;;2184810;59;3461;-18
2023/12/22 03:00:46;;;;;;;;;;;;;;;;;;2183504;67;2255;-18
2023/12/22 03:03:16;;;;;;;;;;;;;;;;;;2197104;59;2408;-18
2023/12/22 03:05:46;;;;;;;;;;;;;;;;;;2183374;59;2481;-18
2023/12/22 03:08:16;;;;;;;;;;;;;;;;;;2182823;67;2010;-19
2023/12/22 03:10:46;;;;;;;;;;;;;;;;;;2185738;59;2690;-18
2023/12/22 03:13:17;;;;;;;;;;;;;;;;;;2183224;59;2044;-19
2023/12/22 03:15:47;;;;;;;;;;;;;;;;;;2186173;59;2494;-18
2023/12/22 03:18:17;;;;;;;;;;;;;;;;;;2182971;67;2309;-18
2023/12/22 03:20:47;;;;;;;;;;;;;;;;;;2183668;67;1645;-18
2023/12/22 03:23:18;;;;;;;;;;;;;;;;;;2182270;67;2746;-19
2023/12/22 03:25:48;;;;;;;;;;;;;;;;;;2183679;60;2010;-18
2023/12/22 03:28:18;;;;;;;;;;;;;;;;;;2182508;59;1638;-18
2023/12/22 03:30:48;;;;;;;;;;;;;;;;;;2184076;67;1537;-18
2023/12/22 03:33:19;;;;;;;;;;;;;;;;;;2185100;59;2449;-18
2023/12/22 03:35:52;;;;;;;;;;;;;;;;;;2183500;59;2016;-18
2023/12/22 03:38:22;;;;;;;;;;;;;;;;;;2183244;59;1973;-19
2023/12/22 03:40:52;;;;;;;;;;;;;;;;;;2183362;59;2531;-18
2023/12/22 03:43:23;;;;;;;;;;;;;;;;;;2182608;59;1987;-19
2023/12/22 03:45:53;;;;;;;;;;;;;;;;;;2182526;59;2036;-18
2023/12/22 03:48:23;;;;;;;;;;;;;;;;;;2182690;59;1917;-18
2023/12/22 03:50:53;;;;;;;;;;;;;;;;;;2183201;59;3214;-18
2023/12/22 03:53:23;;;;;;;;;;;;;;;;;;2183256;59;1743;-18
2023/12/22 03:55:54;;;;;;;;;;;;;;;;;;2184194;59;2411;-18
2023/12/22 03:58:26;;;;;;;;;;;;;;;;;;2181118;59;3130;-18
2023/12/22 04:00:56;;;;;;;;;;;;;;;;;;2183466;67;3150;-19
2023/12/22 04:03:26;;;;;;;;;;;;;;;;;;2181870;59;1908;-18
2023/12/22 04:05:57;;;;;;;;;;;;;;;;;;2182376;59;1840;-19
2023/12/22 04:08:27;;;;;;;;;;;;;;;;;;2181738;67;2233;-18
2023/12/22 04:10:57;;;;;;;;;;;;;;;;;;2183854;59;2197;-18
2023/12/22 04:13:27;;;;;;;;;;;;;;;;;;2182741;59;2986;-18
2023/12/22 04:15:58;;;;;;;;;;;;;;;;;;2183605;59;3191;-18
2023/12/22 04:18:28;;;;;;;;;;;;;;;;;;2182529;59;1995;-18
2023/12/22 04:20:58;;;;;;;;;;;;;;;;;;2185898;67;1440;-18
2023/12/22 04:23:28;;;;;;;;;;;;;;;;;;2183160;59;1925;-18
2023/12/22 04:25:59;;;;;;;;;;;;;;;;;;2186118;64;1372;-19
2023/12/22 04:28:29;;;;;;;;;;;;;;;;;;2185586;59;2429;-19
2023/12/22 04:31:00;;;;;;;;;;;;;;;;;;2182426;59;2318;-18
2023/12/22 04:33:30;;;;;;;;;;;;;;;;;;2182484;67;2634;-18
2023/12/22 04:36:00;;;;;;;;;;;;;;;;;;2182837;59;2303;-18
2023/12/22 04:38:33;;;;;;;;;;;;;;;;;;2182963;59;2859;-18
2023/12/22 04:41:03;;;;;;;;;;;;;;;;;;2184416;59;2014;-19
2023/12/22 04:43:33;;;;;;;;;;;;;;;;;;2183094;59;1941;-19
2023/12/22 04:46:04;;;;;;;;;;;;;;;;;;2185295;59;2231;-19
2023/12/22 04:48:34;;;;;;;;;;;;;;;;;;2185517;59;1564;-19
2023/12/22 04:51:04;;;;;;;;;;;;;;;;;;2186776;59;2166;-18
2023/12/22 04:53:35;;;;;;;;;;;;;;;;;;2182661;67;1577;-19
2023/12/22 04:56:05;;;;;;;;;;;;;;;;;;2184265;67;1673;-18
2023/12/22 04:58:36;;;;;;;;;;;;;;;;;;2182550;59;2861;-19
2023/12/22 05:01:06;;;;;;;;;;;;;;;;;;2185911;59;2950;-18
2023/12/22 05:03:37;;;;;;;;;;;;;;;;;;2182833;59;2398;-18
2023/12/22 05:06:08;;;;;;;;;;;;;;;;;;2184328;67;2416;-19
2023/12/22 05:08:38;;;;;;;;;;;;;;;;;;2182464;67;1886;-19
2023/12/22 05:11:08;;;;;;;;;;;;;;;;;;2183866;60;2274;-19
2023/12/22 05:13:40;;;;;;;;;;;;;;;;;;2183292;59;2162;-19
2023/12/22 05:16:10;;;;;;;;;;;;;;;;;;2179807;59;1689;-19
2023/12/22 05:18:41;;;;;;;;;;;;;;;;;;2182647;67;2443;-19
2023/12/22 05:21:12;;;;;;;;;;;;;;;;;;2182349;67;2378;-20
2023/12/22 05:23:43;;;;;;;;;;;;;;;;;;2181974;67;2658;-19
2023/12/22 05:26:17;;;;;;;;;;;;;;;;;;2182606;59;1881;-20
2023/12/22 05:28:51;;;;;;;;;;;;;;;;;;2194473;67;2092;-19
2023/12/22 05:31:21;;;;;;;;;;;;;;;;;;2183320;59;2097;-19
2023/12/22 05:33:52;;;;;;;;;;;;;;;;;;2184214;59;2248;-19
2023/12/22 05:36:22;;;;;;;;;;;;;;;;;;2198614;59;2024;-20
2023/12/22 05:38:52;;;;;;;;;;;;;;;;;;2183328;59;2138;-19
2023/12/22 05:41:22;;;;;;;;;;;;;;;;;;2186163;67;1855;-19
2023/12/22 05:43:53;;;;;;;;;;;;;;;;;;2183554;59;1929;-19
2023/12/22 05:46:23;;;;;;;;;;;;;;;;;;2182313;59;2171;-18
2023/12/22 05:48:54;;;;;;;;;;;;;;;;;;2183250;59;2826;-20
2023/12/22 05:51:25;;;;;;;;;;;;;;;;;;2183510;67;2799;-20
2023/12/22 05:53:55;;;;;;;;;;;;;;;;;;2184355;67;1967;-18
2023/12/22 05:56:25;;;;;;;;;;;;;;;;;;2183204;59;1855;-19
2023/12/22 05:58:56;;;;;;;;;;;;;;;;;;2183527;67;2332;-20
2023/12/22 06:01:26;;;;;;;;;;;;;;;;;;2182354;59;3373;-19
2023/12/22 06:03:57;;;;;;;;;;;;;;;;;;2183369;67;1954;-19
2023/12/22 06:06:27;;;;;;;;;;;;;;;;;;2181341;67;2464;-19
2023/12/22 06:08:58;;;;;;;;;;;;;;;;;;2183072;67;2167;-19
2023/12/22 06:11:28;;;;;;;;;;;;;;;;;;2185661;59;2037;-18
2023/12/22 06:13:59;;;;;;;;;;;;;;;;;;2184622;59;3725;-19
2023/12/22 06:16:29;;;;;;;;;;;;;;;;;;2180372;59;2014;-19
2023/12/22 06:18:59;;;;;;;;;;;;;;;;;;2184265;59;1886;-19
2023/12/22 06:21:29;;;;;;;;;;;;;;;;;;2182745;67;2151;-18
2023/12/22 06:24:00;;;;;;;;;;;;;;;;;;2183397;59;2338;-19
2023/12/22 06:26:30;;;;;;;;;;;;;;;;;;2182788;67;1783;-19
2023/12/22 06:29:00;;;;;;;;;;;;;;;;;;2180566;67;1812;-18
2023/12/22 06:31:30;;;;;;;;;;;;;;;;;;2186913;59;2473;-19
2023/12/22 06:34:02;;;;;;;;;;;;;;;;;;2185859;59;2451;-19
2023/12/22 06:36:32;;;;;;;;;;;;;;;;;;2182284;59;2627;-20
2023/12/22 06:39:02;;;;;;;;;;;;;;;;;;2183806;59;2562;-19
2023/12/22 06:41:33;;;;;;;;;;;;;;;;;;2182996;59;2199;-20
2023/12/22 06:44:03;;;;;;;;;;;;;;;;;;2186146;59;1988;-20
2023/12/22 06:46:34;;;;;;;;;;;;;;;;;;2183567;59;2420;-18
2023/12/22 06:49:05;;;;;;;;;;;;;;;;;;2183962;60;2325;-20
2023/12/22 06:51:35;;;;;;;;;;;;;;;;;;2183665;67;1809;-21
2023/12/22 06:54:05;;;;;;;;;;;;;;;;;;2184119;67;1784;-19
2023/12/22 06:56:36;;;;;;;;;;;;;;;;;;2182484;59;1982;-20
2023/12/22 06:59:06;;;;;;;;;;;;;;;;;;2186222;59;1737;-19
2023/12/22 07:01:36;;;;;;;;;;;;;;;;;;2184306;67;2912;-19
2023/12/22 07:04:07;;;;;;;;;;;;;;;;;;2182227;67;2594;-19
2023/12/22 07:06:37;;;;;;;;;;;;;;;;;;2183506;59;3310;-19
2023/12/22 07:09:13;;;;;;;;;;;;;;;;;;2183048;59;4605;-19
2023/12/22 07:11:45;;;;;;;;;;;;;;;;;;2182616;59;2320;-19
2023/12/22 07:14:16;;;;;;;;;;;;;;;;;;2183080;59;2127;-20
2023/12/22 07:16:47;;;;;;;;;;;;;;;;;;2183567;59;2344;-19
2023/12/22 07:19:17;;;;;;;;;;;;;;;;;;2183382;67;1923;-19
2023/12/22 07:21:47;;;;;;;;;;;;;;;;;;2182883;67;2220;-20
2023/12/22 07:24:19;;;;;;;;;;;;;;;;;;2184321;67;2600;-19
2023/12/22 07:26:49;;;;;;;;;;;;;;;;;;2182726;59;1811;-19
2023/12/22 07:29:19;;;;;;;;;;;;;;;;;;2197731;67;2298;-19
2023/12/22 07:31:53;;;;;;;;;;;;;;;;;;2182859;59;2326;-20
2023/12/22 07:34:23;;;;;;;;;;;;;;;;;;2186259;59;2865;-19
2023/12/22 07:36:55;;;;;;;;;;;;;;;;;;2183397;67;2004;-19
2023/12/22 07:39:26;;;;;;;;;;;;;;;;;;2183627;59;2096;-19
2023/12/22 07:41:56;;;;;;;;;;;;;;;;;;2183400;67;2118;-19
2023/12/22 07:44:26;;;;;;;;;;;;;;;;;;2182054;67;2716;-20
2023/12/22 07:46:58;;;;;;;;;;;;;;;;;;2183096;59;2950;-19
2023/12/22 07:49:30;;;;;;;;;;;;;;;;;;2182923;59;2123;-20
2023/12/22 07:52:01;;;;;;;;;;;;;;;;;;2186245;59;3099;-19
2023/12/22 07:54:31;;;;;;;;;;;;;;;;;;2182321;59;2263;-20
2023/12/22 07:57:01;;;;;;;;;;;;;;;;;;2182671;59;2460;-19
2023/12/22 07:59:31;;;;;;;;;;;;;;;;;;2183330;59;2665;-19
2023/12/22 08:02:05;;;;;;;;;;;;;;;;;;2181035;59;3258;-19
2023/12/22 08:04:35;;;;;;;;;;;;;;;;;;2182288;59;3100;-19
2023/12/22 08:07:05;;;;;;;;;;;;;;;;;;2181655;59;2572;-19
2023/12/22 08:09:36;;;;;;;;;;;;;;;;;;2182524;59;3132;-19
2023/12/22 08:12:06;;;;;;;;;;;;;;;;;;2183028;59;2374;-19
2023/12/22 08:14:36;;;;;;;;;;;;;;;;;;2181858;59;2755;-20
2023/12/22 08:17:07;;;;;;;;;;;;;;;;;;2182178;59;2721;-20
2023/12/22 08:19:37;;;;;;;;;;;;;;;;;;2182692;59;2422;-19
2023/12/22 08:22:09;;;;;;;;;;;;;;;;;;2183993;59;2862;-20
2023/12/22 08:24:39;;;;;;;;;;;;;;;;;;2183621;67;2014;-19
2023/12/22 08:27:10;;;;;;;;;;;;;;;;;;2184169;59;2831;-19
2023/12/22 08:29:40;;;;;;;;;;;;;;;;;;2182534;59;2413;-18
2023/12/22 08:32:11;;;;;;;;;;;;;;;;;;2185126;59;2240;-19
2023/12/22 08:34:41;;;;;;;;;;;;;;;;;;2182897;59;2325;-19
2023/12/22 08:37:11;;;;;;;;;;;;;;;;;;2183264;59;2471;-19
2023/12/22 08:39:41;;;;;;;;;;;;;;;;;;2187038;54;2297;-24
2023/12/22 08:42:12;;;;;;;;;;;;;;;;;;2181996;59;1791;-25
2023/12/22 08:44:42;;;;;;;;;;;;;;;;;;2184267;59;2309;-26
2023/12/22 08:47:13;;;;;;;;;;;;;;;;;;2186284;59;2072;-25
2023/12/22 08:49:43;;;;;;;;;;;;;;;;;;2182264;59;2088;-25
2023/12/22 08:52:13;;;;;;;;;;;;;;;;;;2181624;67;2048;-25
2023/12/22 08:54:44;;;;;;;;;;;;;;;;;;2180556;59;1669;-25
2023/12/22 08:57:14;;;;;;;;;;;;;;;;;;2181529;59;2265;-25
2023/12/22 08:59:45;;;;;;;;;;;;;;;;;;2181958;67;2355;-24
2023/12/22 09:02:15;;;;;;;;;;;;;;;;;;2181851;59;3295;-24
2023/12/22 09:04:45;;;;;;;;;;;;;;;;;;2180710;59;3697;-25
2023/12/22 09:07:15;;;;;;;;;;;;;;;;;;2181757;67;2147;-25
2023/12/22 09:09:49;;;;;;;;;;;;;;;;;;2180454;59;1728;-25
2023/12/22 09:12:19;;;;;;;;;;;;;;;;;;2179798;60;2522;-25
2023/12/22 09:14:49;;;;;;;;;;;;;;;;;;2182017;59;2090;-25
2023/12/22 09:17:20;;;;;;;;;;;;;;;;;;2182857;59;1628;-25
2023/12/22 09:19:50;;;;;;;;;;;;;;;;;;2181025;59;2464;-25
2023/12/22 09:22:21;;;;;;;;;;;;;;;;;;2182307;67;1862;-25
2023/12/22 09:24:51;;;;;;;;;;;;;;;;;;2180950;67;2118;-25
2023/12/22 09:27:22;;;;;;;;;;;;;;;;;;2183549;67;1839;-25
2023/12/22 09:29:52;;;;;;;;;;;;;;;;;;2179814;67;2166;-25
2023/12/22 09:32:22;;;;;;;;;;;;;;;;;;2181019;59;3065;-25
2023/12/22 09:34:52;;;;;;;;;;;;;;;;;;2180061;67;2283;-25
2023/12/22 09:37:23;;;;;;;;;;;;;;;;;;2180218;67;2148;-25
2023/12/22 09:39:53;;;;;;;;;;;;;;;;;;2180845;59;1873;-25
2023/12/22 09:42:25;;;;;;;;;;;;;;;;;;2179829;67;2426;-25
2023/12/22 09:44:57;;;;;;;;;;;;;;;;;;2179300;59;1929;-25
2023/12/22 09:47:30;;;;;;;;;;;;;;;;;;2179874;67;1750;-25
2023/12/22 09:50:01;;;;;;;;;;;;;;;;;;2180670;67;2352;-24
2023/12/22 09:52:31;;;;;;;;;;;;;;;;;;2182589;67;1979;-25
2023/12/22 09:55:03;;;;;;;;;;;;;;;;;;2180555;67;1936;-25
2023/12/22 09:57:35;;;;;;;;;;;;;;;;;;2181745;67;2284;-27
2023/12/22 10:00:09;;;;;;;;;;;;;;;;;;2180908;67;2403;-25
2023/12/22 10:02:39;;;;;;;;;;;;;;;;;;2181227;59;2567;-25
2023/12/22 10:05:17;;;;;;;;;;;;;;;;;;2179865;67;3551;-25
2023/12/22 10:07:48;;;;;;;;;;;;;;;;;;2179266;59;2718;-25
2023/12/22 10:10:19;;;;;;;;;;;;;;;;;;2182305;59;2812;-25
2023/12/22 10:12:50;;;;;;;;;;;;;;;;;;2182439;67;2508;-24
2023/12/22 10:15:23;;;;;;;;;;;;;;;;;;2186524;59;2574;-25
2023/12/22 10:17:54;;;;;;;;;;;;;;;;;;2182344;67;2928;-24
2023/12/22 10:20:24;;;;;;;;;;;;;;;;;;2183008;67;2335;-25
2023/12/22 10:22:55;;;;;;;;;;;;;;;;;;2181928;67;1912;-24
2023/12/22 10:25:29;;;;;;;;;;;;;;;;;;2181918;67;2795;-25
2023/12/22 10:27:59;;;;;;;;;;;;;;;;;;2181583;67;2109;-25
2023/12/22 10:30:32;;;;;;;;;;;;;;;;;;2181306;60;2067;-25
2023/12/22 10:33:05;;;;;;;;;;;;;;;;;;2179945;59;2528;-25
2023/12/22 10:35:35;;;;;;;;;;;;;;;;;;2182085;67;2640;-25
2023/12/22 10:38:08;;;;;;;;;;;;;;;;;;2181496;59;2453;-25
2023/12/22 10:40:39;;;;;;;;;;;;;;;;;;2182917;59;2251;-26
2023/12/22 10:43:09;;;;;;;;;;;;;;;;;;2181913;59;2532;-25
2023/12/22 10:45:40;;;;;;;;;;;;;;;;;;2183764;67;1802;-25
2023/12/22 10:48:10;;;;;;;;;;;;;;;;;;2181738;59;2488;-25
2023/12/22 10:50:41;;;;;;;;;;;;;;;;;;2182101;59;1869;-25
2023/12/22 10:53:11;;;;;;;;;;;;;;;;;;2180497;67;2583;-25
2023/12/22 10:55:42;;;;;;;;;;;;;;;;;;2181516;67;1784;-24
2023/12/22 10:58:12;;;;;;;;;;;;;;;;;;2182173;59;2178;-25
2023/12/22 11:00:45;;;;;;;;;;;;;;;;;;2181865;67;2140;-24
2023/12/22 11:03:18;;;;;;;;;;;;;;;;;;2179074;60;2117;-25
2023/12/22 11:05:50;;;;;;;;;;;;;;;;;;2177336;67;3388;-25
2023/12/22 11:08:21;;;;;;;;;;;;;;;;;;2180596;67;1756;-25
2023/12/22 11:10:56;;;;;;;;;;;;;;;;;;2180831;59;2233;-24
2023/12/22 11:13:26;;;;;;;;;;;;;;;;;;2177930;59;4011;-25
2023/12/22 11:15:57;;;;;;;;;;;;;;;;;;2178022;59;1812;-24
2023/12/22 11:18:28;;;;;;;;;;;;;;;;;;2179097;60;2192;-27
2023/12/22 11:20:59;;;;;;;;;;;;;;;;;;2178271;67;1917;-27
2023/12/22 11:23:30;;;;;;;;;;;;;;;;;;2180078;67;1949;-25
2023/12/22 11:26:02;;;;;;;;;;;;;;;;;;2178178;60;2452;-24
2023/12/22 11:28:33;;;;;;;;;;;;;;;;;;2180710;67;2088;-24
2023/12/22 11:31:04;;;;;;;;;;;;;;;;;;2178820;59;2089;-24
2023/12/22 11:33:36;;;;;;;;;;;;;;;;;;2179728;67;3063;-24
2023/12/22 11:36:06;;;;;;;;;;;;;;;;;;2179083;60;2085;-24
2023/12/22 11:38:36;;;;;;;;;;;;;;;;;;2180057;67;2001;-24
2023/12/22 11:41:11;;;;;;;;;;;;;;;;;;2178492;60;2085;-24
2023/12/22 11:43:42;;;;;;;;;;;;;;;;;;2180021;67;2266;-25
2023/12/22 11:46:12;;;;;;;;;;;;;;;;;;2179160;61;2182;-24
2023/12/22 11:48:49;;;;;;;;;;;;;;;;;;2177233;67;1909;-24
2023/12/22 11:51:20;;;;;;;;;;;;;;;;;;2180447;67;1981;-24
2023/12/22 11:53:50;;;;;;;;;;;;;;;;;;2179661;67;1966;-24
2023/12/22 11:56:21;;;;;;;;;;;;;;;;;;2180139;60;1768;-25
2023/12/22 11:58:54;;;;;;;;;;;;;;;;;;2181113;59;1933;-24
2023/12/22 12:01:25;;;;;;;;;;;;;;;;;;2179618;60;2038;-24
2023/12/22 12:03:56;;;;;;;;;;;;;;;;;;2177390;67;3830;-25
2023/12/22 12:06:29;;;;;;;;;;;;;;;;;;2174010;59;3276;-24
2023/12/22 12:09:03;;;;;;;;;;;;;;;;;;2177932;67;3650;-24
2023/12/22 12:11:59;;;;;;;;;;;;;;;;;;2180007;60;2054;-24
2023/12/22 12:14:33;;;;;;;;;;;;;;;;;;2177841;59;1976;-24
2023/12/22 12:17:10;;;;;;;;;;;;;;;;;;2179337;67;2084;-24
2023/12/22 12:19:41;;;;;;;;;;;;;;;;;;2179771;67;1934;-24
2023/12/22 12:22:15;;;;;;;;;;;;;;;;;;2177420;60;2065;-26
2023/12/22 12:24:45;;;;;;;;;;;;;;;;;;2180180;59;3547;-24
2023/12/22 12:27:21;;;;;;;;;;;;;;;;;;2177952;59;2418;-24
2023/12/22 12:29:51;;;;;;;;;;;;;;;;;;2179933;60;1989;-24
2023/12/22 12:32:23;;;;;;;;;;;;;;;;;;2179664;60;2748;-27
2023/12/22 12:34:55;;;;;;;;;;;;;;;;;;2179060;67;2221;-27
2023/12/22 12:37:26;;;;;;;;;;;;;;;;;;2180210;59;1812;-27
2023/12/22 12:39:59;;;;;;;;;;;;;;;;;;2178165;59;2648;-26
2023/12/22 12:42:31;;;;;;;;;;;;;;;;;;2179117;67;2044;-26
2023/12/22 12:45:03;;;;;;;;;;;;;;;;;;2177771;67;2419;-27
2023/12/22 12:47:33;;;;;;;;;;;;;;;;;;2179415;67;1770;-27
2023/12/22 12:50:03;;;;;;;;;;;;;;;;;;2177145;59;2252;-27
2023/12/22 12:52:34;;;;;;;;;;;;;;;;;;2180474;67;1851;-27
2023/12/22 12:55:04;;;;;;;;;;;;;;;;;;2176039;67;1950;-27
2023/12/22 12:57:35;;;;;;;;;;;;;;;;;;2180627;59;1720;-27
2023/12/22 13:00:05;;;;;;;;;;;;;;;;;;2179160;67;2510;-27
2023/12/22 13:02:36;;;;;;;;;;;;;;;;;;2180186;67;2288;-27
2023/12/22 13:05:09;;;;;;;;;;;;;;;;;;2178515;67;2214;-27
2023/12/22 13:07:40;;;;;;;;;;;;;;;;;;2180122;67;3374;-27
2023/12/22 13:10:19;;;;;;;;;;;;;;;;;;2179128;59;2266;-27
2023/12/22 13:12:54;;;;;;;;;;;;;;;;;;2182604;59;2439;-27
2023/12/22 13:15:24;;;;;;;;;;;;;;;;;;2181133;59;1895;-27
2023/12/22 13:17:54;;;;;;;;;;;;;;;;;;2180489;67;2361;-27
2023/12/22 13:20:25;;;;;;;;;;;;;;;;;;2181248;67;2354;-28
2023/12/22 13:22:55;;;;;;;;;;;;;;;;;;2179713;60;2019;-27
2023/12/22 13:25:25;;;;;;;;;;;;;;;;;;2180587;59;1857;-27
2023/12/22 13:27:56;;;;;;;;;;;;;;;;;;2182563;67;1881;-27
2023/12/22 13:30:33;;;;;;;;;;;;;;;;;;2180288;67;1901;-27
2023/12/22 13:33:03;;;;;;;;;;;;;;;;;;2179406;59;2560;-27
2023/12/22 13:35:38;;;;;;;;;;;;;;;;;;2180919;67;1897;-27
2023/12/22 13:38:08;;;;;;;;;;;;;;;;;;2179165;59;1686;-27
2023/12/22 13:40:39;;;;;;;;;;;;;;;;;;2179703;59;2533;-27
2023/12/22 13:43:09;;;;;;;;;;;;;;;;;;2176471;67;2106;-27
2023/12/22 13:45:39;;;;;;;;;;;;;;;;;;2180750;59;2417;-26
2023/12/22 13:48:10;;;;;;;;;;;;;;;;;;2180254;66;2313;-27
2023/12/22 13:50:40;;;;;;;;;;;;;;;;;;2180371;67;3111;-27
2023/12/22 13:53:11;;;;;;;;;;;;;;;;;;2178712;67;2486;-27
2023/12/22 13:55:43;;;;;;;;;;;;;;;;;;2182177;67;2168;-27
2023/12/22 13:58:14;;;;;;;;;;;;;;;;;;2179192;59;2904;-27
2023/12/22 14:00:45;;;;;;;;;;;;;;;;;;2180466;59;2719;-27
2023/12/22 14:03:22;;;;;;;;;;;;;;;;;;2179640;59;2312;-27
2023/12/22 14:05:53;;;;;;;;;;;;;;;;;;2181435;59;2514;-27
2023/12/22 14:08:23;;;;;;;;;;;;;;;;;;2179539;60;3419;-27
2023/12/22 14:10:53;;;;;;;;;;;;;;;;;;2179396;59;2290;-27
2023/12/22 14:13:23;;;;;;;;;;;;;;;;;;2180685;59;2566;-27
2023/12/22 14:15:54;;;;;;;;;;;;;;;;;;2179699;59;2670;-27
2023/12/22 14:18:24;;;;;;;;;;;;;;;;;;2174771;67;2194;-27
2023/12/22 14:20:54;;;;;;;;;;;;;;;;;;2179862;59;1989;-27
2023/12/22 14:23:24;;;;;;;;;;;;;;;;;;2180982;67;2661;-26
2023/12/22 14:25:55;;;;;;;;;;;;;;;;;;2180438;59;1999;-27
2023/12/22 14:28:25;;;;;;;;;;;;;;;;;;2179703;67;2205;-27
2023/12/22 14:30:55;;;;;;;;;;;;;;;;;;2179386;59;2191;-26
2023/12/22 14:33:25;;;;;;;;;;;;;;;;;;2179096;59;2301;-26
2023/12/22 14:35:56;;;;;;;;;;;;;;;;;;2178030;59;1918;-26
2023/12/22 14:38:26;;;;;;;;;;;;;;;;;;2179771;67;2188;-26
2023/12/22 14:40:56;;;;;;;;;;;;;;;;;;2179770;59;1802;-27
2023/12/22 14:43:26;;;;;;;;;;;;;;;;;;2181060;67;2269;-26
2023/12/22 14:45:57;;;;;;;;;;;;;;;;;;2180713;67;1785;-26
2023/12/22 14:48:27;;;;;;;;;;;;;;;;;;2183113;67;1816;-28
2023/12/22 14:50:57;;;;;;;;;;;;;;;;;;2180257;67;1943;-26
2023/12/22 14:53:28;;;;;;;;;;;;;;;;;;2181070;59;1926;-26
2023/12/22 14:55:59;;;;;;;;;;;;;;;;;;2178251;59;1936;-27
2023/12/22 14:58:30;;;;;;;;;;;;;;;;;;2180513;59;2280;-26
2023/12/22 15:01:00;;;;;;;;;;;;;;;;;;2178014;67;1858;-26
2023/12/22 15:03:30;;;;;;;;;;;;;;;;;;2179311;67;2095;-27
2023/12/22 15:06:02;;;;;;;;;;;;;;;;;;2178937;60;2102;-27
2023/12/22 15:08:33;;;;;;;;;;;;;;;;;;2179673;59;2614;-28
2023/12/22 15:11:03;;;;;;;;;;;;;;;;;;2175930;59;2427;-27
2023/12/22 15:13:34;;;;;;;;;;;;;;;;;;2181065;59;2179;-27
2023/12/22 15:16:05;;;;;;;;;;;;;;;;;;2180195;59;2308;-27
2023/12/22 15:18:35;;;;;;;;;;;;;;;;;;2181777;59;2978;-27
2023/12/22 15:21:06;;;;;;;;;;;;;;;;;;2178360;67;2128;-27
2023/12/22 15:23:39;;;;;;;;;;;;;;;;;;2182287;67;1932;-24
2023/12/22 15:26:19;;;;;;;;;;;;;;;;;;2178168;67;2428;-27
2023/12/22 15:28:49;;;;;;;;;;;;;;;;;;2179834;67;2075;-28
2023/12/22 15:31:19;;;;;;;;;;;;;;;;;;2177400;59;2189;-27
2023/12/22 15:33:50;;;;;;;;;;;;;;;;;;2180039;67;2542;-27
2023/12/22 15:36:21;;;;;;;;;;;;;;;;;;2178168;59;2668;-27
2023/12/22 15:38:52;;;;;;;;;;;;;;;;;;2179412;59;2437;-27
2023/12/22 15:41:22;;;;;;;;;;;;;;;;;;2178516;67;2584;-27
2023/12/22 15:43:52;;;;;;;;;;;;;;;;;;2179480;67;3221;-27
2023/12/22 15:46:23;;;;;;;;;;;;;;;;;;2178006;67;2269;-27
2023/12/22 15:48:53;;;;;;;;;;;;;;;;;;2179888;59;1869;-26
2023/12/22 15:51:23;;;;;;;;;;;;;;;;;;2181760;59;2259;-27
2023/12/22 15:53:54;;;;;;;;;;;;;;;;;;2179168;67;1992;-26
2023/12/22 15:56:24;;;;;;;;;;;;;;;;;;2178751;59;2044;-26
2023/12/22 15:58:55;;;;;;;;;;;;;;;;;;2180197;59;1795;-26
2023/12/22 16:01:25;;;;;;;;;;;;;;;;;;2176815;67;2044;-26
2023/12/22 16:03:55;;;;;;;;;;;;;;;;;;2180720;67;1945;-26
2023/12/22 16:06:25;;;;;;;;;;;;;;;;;;2179758;67;1824;-26
2023/12/22 16:08:56;;;;;;;;;;;;;;;;;;2182008;67;2480;-26
2023/12/22 16:11:26;;;;;;;;;;;;;;;;;;2177963;59;3058;-26
2023/12/22 16:13:57;;;;;;;;;;;;;;;;;;2180170;59;1915;-26
2023/12/22 16:16:27;;;;;;;;;;;;;;;;;;2175737;59;1900;-26
2023/12/22 16:18:57;;;;;;;;;;;;;;;;;;2182914;67;1882;-26
2023/12/22 16:21:28;;;;;;;;;;;;;;;;;;2179251;60;2254;-26
2023/12/22 16:24:01;;;;;;;;;;;;;;;;;;2180389;67;2078;-26
2023/12/22 16:26:31;;;;;;;;;;;;;;;;;;2179715;59;2159;-27
2023/12/22 16:29:01;;;;;;;;;;;;;;;;;;2179627;67;1832;-26
2023/12/22 16:31:32;;;;;;;;;;;;;;;;;;2180766;60;2513;-26
2023/12/22 16:34:02;;;;;;;;;;;;;;;;;;2181352;59;2066;-26
2023/12/22 16:36:32;;;;;;;;;;;;;;;;;;2180185;67;2577;-26
2023/12/22 16:39:03;;;;;;;;;;;;;;;;;;2179701;59;2437;-26
2023/12/22 16:41:37;;;;;;;;;;;;;;;;;;2180983;59;1872;-26
2023/12/22 16:44:07;;;;;;;;;;;;;;;;;;2179936;67;1987;-26
2023/12/22 16:46:38;;;;;;;;;;;;;;;;;;2180319;67;2797;-26
2023/12/22 16:49:08;;;;;;;;;;;;;;;;;;2181335;59;2375;-27
2023/12/22 16:51:42;;;;;;;;;;;;;;;;;;2187069;54;3056;-23
2023/12/22 16:54:12;;;;;;;;;;;;;;;;;;2182811;59;1939;-23
2023/12/22 16:56:43;;;;;;;;;;;;;;;;;;2185770;59;2296;-23
2023/12/22 16:59:13;;;;;;;;;;;;;;;;;;2182429;59;2033;-23
2023/12/22 17:01:46;;;;;;;;;;;;;;;;;;2184524;60;2117;-23
2023/12/22 17:04:16;;;;;;;;;;;;;;;;;;2182992;67;2056;-23
2023/12/22 17:06:47;;;;;;;;;;;;;;;;;;2185491;54;3561;-25
2023/12/22 17:09:18;;;;;;;;;;;;;;;;;;2180988;59;2145;-25
2023/12/22 17:11:48;;;;;;;;;;;;;;;;;;2179059;59;3378;-25
2023/12/22 17:14:18;;;;;;;;;;;;;;;;;;2196226;59;1811;-26
2023/12/22 17:16:49;;;;;;;;;;;;;;;;;;2184053;59;1816;-26
2023/12/22 17:19:19;;;;;;;;;;;;;;;;;;2183479;67;2490;-26
2023/12/22 17:21:49;;;;;;;;;;;;;;;;;;2183556;59;2388;-26
2023/12/22 17:24:19;;;;;;;;;;;;;;;;;;2185275;59;2737;-26
2023/12/22 17:26:50;;;;;;;;;;;;;;;;;;2184558;67;1846;-26
2023/12/22 17:29:21;;;;;;;;;;;;;;;;;;2184758;59;1915;-27